Time;durP1;ratioP1;P1;durP2;ratioP2;P2;SDS_P1;SDS_P2;PMS_P1;PMS_P2;Temp;Humidity;BMP_temperature;BMP_pressure;BME280_temperature;BME280_humidity;BME280_pressure;Samples;Min_cycle;Max_cycle;Signal;HPM_P1;HPM_P2
2023/09/18 00:00:51;;;;;;;;;;;;;;;16.22;100.00;95676.03;5136380;27;969;-55
2023/09/18 00:03:19;;;;;;;;;;;;;;;16.30;100.00;95675.13;5136257;27;1926;-56
2023/09/18 00:05:46;;;;;;;;;;;;;;;16.24;100.00;95668.59;5136211;27;1016;-56
2023/09/18 00:08:12;;;;;;;;;;;;;;;16.39;100.00;95671.31;5135880;27;2007;-56
2023/09/18 00:10:38;;;;;;;;;;;;;;;16.42;100.00;95672.81;5135902;27;1044;-56
2023/09/18 00:13:03;;;;;;;;;;;;;;;16.07;100.00;95667.91;5136083;27;1056;-56
2023/09/18 00:15:30;;;;;;;;;;;;;;;15.98;100.00;95674.41;5135725;27;1195;-56
2023/09/18 00:17:56;;;;;;;;;;;;;;;15.97;100.00;95678.09;5135775;27;1036;-56
2023/09/18 00:20:26;;;;;;;;;;;;;;;16.11;100.00;95671.91;5135797;27;980;-55
2023/09/18 00:22:56;;;;;;;;;;;;;;;16.16;100.00;95672.22;5135820;27;1989;-56
2023/09/18 00:25:22;;;;;;;;;;;;;;;15.99;100.00;95676.91;5135762;27;1043;-56
2023/09/18 00:27:49;;;;;;;;;;;;;;;16.04;100.00;95672.84;5134773;27;973;-56
2023/09/18 00:30:14;;;;;;;;;;;;;;;15.96;100.00;95681.84;5135655;27;960;-56
2023/09/18 00:32:40;;;;;;;;;;;;;;;16.05;100.00;95678.06;5135468;27;1071;-56
2023/09/18 00:35:07;;;;;;;;;;;;;;;16.11;100.00;95684.56;5135587;27;988;-56
2023/09/18 00:37:33;;;;;;;;;;;;;;;15.97;100.00;95678.09;5135403;27;968;-56
2023/09/18 00:39:58;;;;;;;;;;;;;;;15.92;100.00;95684.06;5135414;27;1047;-56
2023/09/18 00:42:25;;;;;;;;;;;;;;;15.95;100.00;95680.16;5134891;27;1905;-56
2023/09/18 00:44:51;;;;;;;;;;;;;;;15.95;100.00;95680.16;5135270;27;683;-55
2023/09/18 00:47:17;;;;;;;;;;;;;;;15.96;100.00;95677.28;5135394;27;1071;-56
2023/09/18 00:49:45;;;;;;;;;;;;;;;15.93;100.00;95684.88;5135441;27;1111;-55
2023/09/18 00:52:11;;;;;;;;;;;;;;;16.09;100.00;95676.66;5134989;27;1098;-55
2023/09/18 00:54:38;;;;;;;;;;;;;;;16.05;100.00;95677.19;5135168;27;980;-56
2023/09/18 00:57:05;;;;;;;;;;;;;;;15.97;100.00;95678.09;5134945;27;1039;-56
2023/09/18 00:59:32;;;;;;;;;;;;;;;15.98;100.00;95683.31;5135305;27;1314;-56
2023/09/18 01:01:59;;;;;;;;;;;;;;;15.99;100.00;95686.84;5134856;27;1910;-56
2023/09/18 01:04:26;;;;;;;;;;;;;;;16.10;100.00;95690.97;5135004;27;1015;-56
2023/09/18 01:06:56;;;;;;;;;;;;;;;16.05;100.00;95685.28;5135172;27;965;-55
2023/09/18 01:09:22;;;;;;;;;;;;;;;16.11;100.00;95687.28;5134984;27;1055;-55
2023/09/18 01:12:01;;;;;;;;;;;;;;;16.18;100.00;95689.06;5135001;27;1020;-55
2023/09/18 01:14:42;;;;;;;;;;;;;;;16.20;100.00;95692.41;5134949;27;980;-55
2023/09/18 01:17:10;;;;;;;;;;;;;;;16.08;100.00;95685.75;5134843;27;997;-55
2023/09/18 01:19:37;;;;;;;;;;;;;;;15.96;100.00;95692.63;5134751;27;1032;-56
2023/09/18 01:22:07;;;;;;;;;;;;;;;15.86;100.00;95689.31;5134584;27;1981;-55
2023/09/18 01:24:34;;;;;;;;;;;;;;;15.52;100.00;95687.88;5134830;27;972;-55
2023/09/18 01:27:00;;;;;;;;;;;;;;;15.49;100.00;95696.31;5134528;27;1031;-55
2023/09/18 01:29:26;;;;;;;;;;;;;;;15.45;100.00;95692.28;5134444;27;1950;-56
2023/09/18 01:31:53;;;;;;;;;;;;;;;15.66;100.00;95684.38;5134642;27;1063;-55
2023/09/18 01:34:21;;;;;;;;;;;;;;;15.61;100.00;95692.16;5134671;27;981;-55
2023/09/18 01:36:47;;;;;;;;;;;;;;;15.69;100.00;95691.25;5134661;27;956;-55
2023/09/18 01:39:14;;;;;;;;;;;;;;;15.81;100.00;95690.69;5134402;27;984;-56
2023/09/18 01:41:40;;;;;;;;;;;;;;;15.74;100.00;95692.44;5134371;27;1910;-55
2023/09/18 01:44:06;;;;;;;;;;;;;;;15.60;100.00;95698.59;5134292;27;1253;-55
2023/09/18 01:46:36;;;;;;;;;;;;;;;15.50;100.00;95693.44;5134536;27;1031;-55
2023/09/18 01:49:03;;;;;;;;;;;;;;;15.48;100.00;95691.91;5134300;27;960;-55
2023/09/18 01:51:29;;;;;;;;;;;;;;;15.40;100.00;95698.19;5134133;27;1052;-55
2023/09/18 01:53:56;;;;;;;;;;;;;;;15.56;100.00;95699.97;5134550;27;1060;-55
2023/09/18 01:56:23;;;;;;;;;;;;;;;15.59;100.00;95700.44;5134453;27;1043;-56
2023/09/18 01:58:49;;;;;;;;;;;;;;;15.70;100.00;95701.88;5123909;27;1310;-56
2023/09/18 02:01:15;;;;;;;;;;;;;;;15.85;100.00;95706.53;5113835;28;999;-56
2023/09/18 02:03:41;;;;;;;;;;;;;;;15.97;100.00;95708.63;5113566;28;1906;-56
2023/09/18 02:06:08;;;;;;;;;;;;;;;16.07;100.00;95705.69;5113522;28;1091;-56
2023/09/18 02:08:34;;;;;;;;;;;;;;;15.96;100.00;95704.25;5113749;28;968;-56
2023/09/18 02:11:00;;;;;;;;;;;;;;;15.93;100.00;95711.84;5113825;28;995;-55
2023/09/18 02:13:26;;;;;;;;;;;;;;;15.94;100.00;95708.97;5113548;28;1075;-55
2023/09/18 02:15:54;;;;;;;;;;;;;;;16.10;100.00;95704.47;5113623;28;947;-55
2023/09/18 02:18:20;;;;;;;;;;;;;;;16.15;100.00;95705.59;5113390;28;1044;-55
2023/09/18 02:20:48;;;;;;;;;;;;;;;16.16;100.00;95699.19;5113435;28;1007;-56
2023/09/18 02:23:15;;;;;;;;;;;;;;;16.18;100.00;95702.53;5113602;28;1967;-56
2023/09/18 02:25:41;;;;;;;;;;;;;;;16.21;100.00;95701.34;5113726;28;973;-55
2023/09/18 02:28:07;;;;;;;;;;;;;;;16.18;100.00;95697.16;5113717;28;1044;-56
2023/09/18 02:30:33;;;;;;;;;;;;;;;16.17;100.00;95708.94;5113601;28;991;-55
2023/09/18 02:32:59;;;;;;;;;;;;;;;16.25;100.00;95701.81;5113604;28;1027;-55
2023/09/18 02:35:25;;;;;;;;;;;;;;;16.20;100.00;95715.81;5113191;28;1091;-56
2023/09/18 02:37:52;;;;;;;;;;;;;;;16.15;100.00;95702.91;5113608;28;996;-56
2023/09/18 02:40:18;;;;;;;;;;;;;;;16.13;100.00;95696.84;5113434;28;967;-55
2023/09/18 02:42:44;;;;;;;;;;;;;;;16.15;100.00;95702.91;5113275;28;1914;-55
2023/09/18 02:45:10;;;;;;;;;;;;;;;16.16;100.00;95701.88;5113305;28;996;-55
2023/09/18 02:47:40;;;;;;;;;;;;;;;16.15;100.00;95693.97;5113204;28;917;-55
2023/09/18 02:50:07;;;;;;;;;;;;;;;16.16;100.00;95701.88;5114994;28;965;-55
2023/09/18 02:52:33;;;;;;;;;;;;;;;16.17;100.00;95703.56;5117142;28;961;-56
2023/09/18 02:54:59;;;;;;;;;;;;;;;16.25;100.00;95704.50;5116810;28;1037;-55
2023/09/18 02:57:25;;;;;;;;;;;;;;;16.22;100.00;95703.03;5116776;28;1036;-55
2023/09/18 02:59:51;;;;;;;;;;;;;;;16.14;100.00;95701.25;5135881;27;1314;-56
2023/09/18 03:02:17;;;;;;;;;;;;;;;16.04;100.00;95705.19;5137142;27;1902;-56
2023/09/18 03:04:43;;;;;;;;;;;;;;;15.85;100.00;95706.53;5137488;27;949;-55
2023/09/18 03:07:08;;;;;;;;;;;;;;;15.80;100.00;95698.97;5137414;27;964;-55
2023/09/18 03:09:35;;;;;;;;;;;;;;;15.92;100.00;95696.72;5137342;27;973;-55
2023/09/18 03:12:02;;;;;;;;;;;;;;;15.94;100.00;95694.66;5137233;27;969;-55
2023/09/18 03:14:28;;;;;;;;;;;;;;;15.88;100.00;95695.38;5137042;27;1055;-55
2023/09/18 03:16:53;;;;;;;;;;;;;;;15.82;100.00;95702.31;5137322;27;1031;-56
2023/09/18 03:19:22;;;;;;;;;;;;;;;15.76;100.00;95692.25;5136823;27;1040;-55
2023/09/18 03:21:48;;;;;;;;;;;;;;;15.76;100.00;95694.97;5137107;27;1906;-55
2023/09/18 03:24:13;;;;;;;;;;;;;;;15.45;100.00;95690.44;5136988;27;1061;-55
2023/09/18 03:26:39;;;;;;;;;;;;;;;15.35;100.00;95701.44;5136961;27;960;-55
2023/09/18 03:29:05;;;;;;;;;;;;;;;15.41;100.00;95698.03;5136785;27;1035;-56
2023/09/18 03:31:31;;;;;;;;;;;;;;;15.43;100.00;95695.16;5136993;27;988;-55
2023/09/18 03:33:57;;;;;;;;;;;;;;;15.31;100.00;95694.72;5136619;27;965;-55
2023/09/18 03:36:23;;;;;;;;;;;;;;;15.36;100.00;95700.41;5136843;27;969;-55
2023/09/18 03:38:49;;;;;;;;;;;;;;;15.29;100.00;95695.91;5136555;27;1125;-55
2023/09/18 03:41:15;;;;;;;;;;;;;;;15.19;100.00;95701.50;5136411;27;1103;-55
2023/09/18 03:43:41;;;;;;;;;;;;;;;15.18;100.00;95689.06;5136356;27;2004;-55
2023/09/18 03:46:07;;;;;;;;;;;;;;;15.27;100.00;95700.63;5136740;27;1055;-55
2023/09/18 03:48:37;;;;;;;;;;;;;;;15.21;100.00;95700.34;5136222;27;1102;-55
2023/09/18 03:51:06;;;;;;;;;;;;;;;15.17;100.00;95703.53;5136468;27;1011;-55
2023/09/18 03:53:33;;;;;;;;;;;;;;;15.16;100.00;95702.72;5136198;27;1869;-55
2023/09/18 03:55:59;;;;;;;;;;;;;;;15.20;100.00;95695.97;5136262;27;1036;-55
2023/09/18 03:58:25;;;;;;;;;;;;;;;15.27;100.00;95706.00;5129310;27;1287;-55
2023/09/18 04:00:51;;;;;;;;;;;;;;;15.40;100.00;95706.28;5115869;28;1039;-55
2023/09/18 04:03:17;;;;;;;;;;;;;;;15.52;100.00;95701.34;5115254;28;2059;-55
2023/09/18 04:05:43;;;;;;;;;;;;;;;15.58;100.00;95706.84;5115765;28;961;-56
2023/09/18 04:08:09;;;;;;;;;;;;;;;15.58;100.00;95711.41;5115620;28;976;-55
2023/09/18 04:10:35;;;;;;;;;;;;;;;15.48;100.00;95703.56;5115350;28;1048;-55
2023/09/18 04:13:01;;;;;;;;;;;;;;;15.34;100.00;95715.06;5115629;28;965;-55
2023/09/18 04:15:30;;;;;;;;;;;;;;;15.26;100.00;95710.56;5115185;28;1016;-55
2023/09/18 04:17:56;;;;;;;;;;;;;;;15.29;100.00;95722.84;5115170;28;1023;-55
2023/09/18 04:20:25;;;;;;;;;;;;;;;15.35;100.00;95716.78;5115105;28;1073;-55
2023/09/18 04:23:11;;;;;;;;;;;;;;;15.47;100.00;95711.81;5115346;28;1902;-55
2023/09/18 04:25:37;;;;;;;;;;;;;;;15.71;100.00;95719.75;5115055;28;1097;-55
2023/09/18 04:28:03;;;;;;;;;;;;;;;15.89;100.00;95713.25;5115086;28;969;-56
2023/09/18 04:30:29;;;;;;;;;;;;;;;15.94;100.00;95721.63;5114850;28;1076;-55
2023/09/18 04:32:55;;;;;;;;;;;;;;;15.95;100.00;95713.38;5115190;28;984;-55
2023/09/18 04:35:25;;;;;;;;;;;;;;;15.92;100.00;95724.50;5115065;28;984;-55
2023/09/18 04:37:55;;;;;;;;;;;;;;;15.84;100.00;95721.03;5114829;27;1091;-56
2023/09/18 04:40:23;;;;;;;;;;;;;;;15.87;100.00;95728.75;5115030;27;1048;-56
2023/09/18 04:42:49;;;;;;;;;;;;;;;15.91;100.00;95727.38;5114486;28;1913;-56
2023/09/18 04:45:16;;;;;;;;;;;;;;;16.00;100.00;95724.44;5115517;27;1955;-55
2023/09/18 04:47:42;;;;;;;;;;;;;;;16.06;100.00;95719.34;5135450;27;1056;-55
2023/09/18 04:50:08;;;;;;;;;;;;;;;16.08;100.00;95728.91;5135082;27;1052;-55
2023/09/18 04:52:34;;;;;;;;;;;;;;;16.15;100.00;95724.47;5135225;27;1048;-55
2023/09/18 04:55:00;;;;;;;;;;;;;;;16.19;100.00;95725.78;5135136;27;999;-55
2023/09/18 04:57:26;;;;;;;;;;;;;;;16.32;100.00;95729.75;5134854;27;1127;-54
2023/09/18 04:59:52;;;;;;;;;;;;;;;16.34;100.00;95727.69;5115910;27;1263;-55
2023/09/18 05:02:18;;;;;;;;;;;;;;;16.28;100.00;95723.88;5131693;27;1905;-56
2023/09/18 05:04:44;;;;;;;;;;;;;;;16.36;100.00;95721.09;5134830;27;1100;-55
2023/09/18 05:07:10;;;;;;;;;;;;;;;16.38;100.00;95724.44;5133821;27;1045;-56
2023/09/18 05:09:36;;;;;;;;;;;;;;;16.37;100.00;95728.19;5134997;27;1060;-56
2023/09/18 05:12:04;;;;;;;;;;;;;;;16.36;100.00;95731.06;5134612;27;979;-55
2023/09/18 05:14:31;;;;;;;;;;;;;;;16.30;100.00;95723.69;5133020;27;1867;-55
2023/09/18 05:16:57;;;;;;;;;;;;;;;16.34;100.00;95730.41;5123516;27;969;-55
2023/09/18 05:19:23;;;;;;;;;;;;;;;16.41;100.00;95734.03;5130843;27;1406;-55
2023/09/18 05:21:48;;;;;;;;;;;;;;;16.30;100.00;95734.50;5134794;27;1992;-55
2023/09/18 05:24:14;;;;;;;;;;;;;;;16.36;100.00;95739.97;5132946;27;1647;-55
2023/09/18 05:26:40;;;;;;;;;;;;;;;16.35;100.00;95738.31;5123315;27;958;-55
2023/09/18 05:29:06;;;;;;;;;;;;;;;16.35;100.00;95746.41;5114214;28;966;-55
2023/09/18 05:31:32;;;;;;;;;;;;;;;16.46;100.00;95744.28;5114295;28;1116;-55
2023/09/18 05:33:58;;;;;;;;;;;;;;;16.49;100.00;95744.75;5127210;27;2040;-55
2023/09/18 05:36:24;;;;;;;;;;;;;;;16.53;100.00;95746.06;5134441;27;1055;-56
2023/09/18 05:38:50;;;;;;;;;;;;;;;16.59;100.00;95750.72;5134558;27;1051;-54
2023/09/18 05:41:16;;;;;;;;;;;;;;;16.61;100.00;95738.91;5134630;27;1015;-56
2023/09/18 05:43:42;;;;;;;;;;;;;;;16.67;100.00;95743.56;5133325;27;1921;-56
2023/09/18 05:46:08;;;;;;;;;;;;;;;16.65;100.00;95751.00;5133437;27;932;-55
2023/09/18 05:48:34;;;;;;;;;;;;;;;16.68;100.00;95747.97;5133828;27;1055;-55
2023/09/18 05:51:00;;;;;;;;;;;;;;;16.63;100.00;95743.09;5134190;27;977;-55
2023/09/18 05:53:26;;;;;;;;;;;;;;;16.71;100.00;95742.16;5134073;27;989;-55
2023/09/18 05:55:52;;;;;;;;;;;;;;;16.73;100.00;95742.81;5134324;27;1037;-56
2023/09/18 05:58:22;;;;;;;;;;;;;;;16.87;100.00;95735.81;5134070;27;1259;-56
2023/09/18 06:00:49;;;;;;;;;;;;;;;17.08;100.00;95740.44;5134247;27;1051;-56
2023/09/18 06:03:15;;;;;;;;;;;;;;;17.27;100.00;95742.56;5134305;27;1992;-55
2023/09/18 06:05:42;;;;;;;;;;;;;;;17.36;100.00;95743.31;5132955;28;1048;-56
2023/09/18 06:08:08;;;;;;;;;;;;;;;17.54;100.00;95748.31;5134441;27;976;-56
2023/09/18 06:10:34;;;;;;;;;;;;;;;17.53;100.00;95739.38;5134302;27;1031;-55
2023/09/18 06:13:03;;;;;;;;;;;;;;;17.34;100.00;95735.38;5132893;28;1095;-56
2023/09/18 06:15:30;;;;;;;;;;;;;;;17.63;100.00;95732.81;5134160;27;1056;-56
2023/09/18 06:17:56;;;;;;;;;;;;;;;17.67;100.00;95728.69;5134238;27;963;-55
2023/09/18 06:20:22;;;;;;;;;;;;;;;17.52;100.00;95732.25;5134036;27;972;-56
2023/09/18 06:22:48;;;;;;;;;;;;;;;17.43;100.00;95738.81;5134022;27;1905;-55
2023/09/18 06:25:14;;;;;;;;;;;;;;;17.78;100.00;95738.19;5136282;27;973;-55
2023/09/18 06:27:42;;;;;;;;;;;;;;;18.36;100.00;95732.72;5138197;27;961;-56
2023/09/18 06:30:08;;;;;;;;;;;;;;;18.59;100.00;95729.75;5137935;27;1052;-55
2023/09/18 06:32:34;;;;;;;;;;;;;;;18.89;100.00;95743.97;5137801;27;1033;-55
2023/09/18 06:35:00;;;;;;;;;;;;;;;18.84;100.00;95735.63;5138116;27;968;-55
2023/09/18 06:37:26;;;;;;;;;;;;;;;19.06;100.00;95736.38;5137773;27;1052;-55
2023/09/18 06:39:52;;;;;;;;;;;;;;;19.20;100.00;95740.84;5138016;27;1064;-55
2023/09/18 06:42:19;;;;;;;;;;;;;;;19.43;100.00;95734.28;5137616;27;1993;-56
2023/09/18 06:44:45;;;;;;;;;;;;;;;20.01;98.80;95734.66;5137681;27;1977;-55
2023/09/18 06:47:11;;;;;;;;;;;;;;;20.45;93.51;95726.97;5137773;27;983;-56
2023/09/18 06:49:37;;;;;;;;;;;;;;;20.63;92.50;95729.13;5137647;27;1010;-56
2023/09/18 06:52:04;;;;;;;;;;;;;;;20.67;92.65;95738.50;5137605;27;1007;-56
2023/09/18 06:54:30;;;;;;;;;;;;;;;20.95;91.55;95732.84;5137310;27;1091;-56
2023/09/18 06:56:56;;;;;;;;;;;;;;;21.06;91.98;95728.63;5137730;27;1056;-56
2023/09/18 06:59:22;;;;;;;;;;;;;;;21.25;93.86;95732.34;5122352;27;1246;-56
2023/09/18 07:01:48;;;;;;;;;;;;;;;21.37;93.78;95740.69;5115782;28;1992;-56
2023/09/18 07:04:14;;;;;;;;;;;;;;;21.23;90.28;95729.84;5116652;28;1973;-56
2023/09/18 07:06:40;;;;;;;;;;;;;;;21.46;92.09;95734.00;5116683;28;1087;-56
2023/09/18 07:09:07;;;;;;;;;;;;;;;21.60;92.48;95730.16;5116570;28;1036;-56
2023/09/18 07:11:33;;;;;;;;;;;;;;;21.53;89.02;95733.94;5116790;28;965;-56
2023/09/18 07:13:59;;;;;;;;;;;;;;;21.57;91.51;95735.19;5116521;28;1096;-55
2023/09/18 07:16:25;;;;;;;;;;;;;;;21.70;89.85;95731.56;5116579;28;1018;-56
2023/09/18 07:18:51;;;;;;;;;;;;;;;21.72;88.36;95734.91;5116678;28;969;-56
2023/09/18 07:21:17;;;;;;;;;;;;;;;21.42;88.11;95741.72;5116301;28;1028;-56
2023/09/18 07:23:45;;;;;;;;;;;;;;;21.23;90.80;95740.72;5116263;28;1901;-56
2023/09/18 07:26:11;;;;;;;;;;;;;;;21.42;92.83;95736.28;5116157;28;1876;-56
2023/09/18 07:28:38;;;;;;;;;;;;;;;21.56;89.88;95738.97;5116536;28;1209;-56
2023/09/18 07:31:08;;;;;;;;;;;;;;;21.72;92.25;95740.34;5116327;27;1031;-55
2023/09/18 07:33:34;;;;;;;;;;;;;;;21.76;89.23;95745.16;5116054;28;1059;-56
2023/09/18 07:36:00;;;;;;;;;;;;;;;21.86;90.74;95743.88;5115641;28;1103;-56
2023/09/18 07:38:26;;;;;;;;;;;;;;;21.94;88.40;95738.97;5134843;27;2515;-56
2023/09/18 07:40:52;;;;;;;;;;;;;;;22.00;85.27;95742.72;5136815;27;1032;-56
2023/09/18 07:43:18;;;;;;;;;;;;;;;22.17;86.94;95741.16;5136351;27;1980;-56
2023/09/18 07:45:44;;;;;;;;;;;;;;;22.45;86.33;95747.28;5135926;27;2508;-56
2023/09/18 07:48:10;;;;;;;;;;;;;;;22.52;89.04;95740.75;5135641;27;2890;-56
2023/09/18 07:50:36;;;;;;;;;;;;;;;22.42;86.21;95743.09;5135250;27;1859;-56
2023/09/18 07:53:02;;;;;;;;;;;;;;;22.53;86.42;95736.94;5136464;27;968;-56
2023/09/18 07:55:29;;;;;;;;;;;;;;;22.66;86.38;95746.06;5136545;27;994;-57
2023/09/18 07:57:55;;;;;;;;;;;;;;;22.79;85.76;95741.34;5136621;27;1622;-57
2023/09/18 08:00:22;;;;;;;;;;;;;;;22.61;81.70;95744.00;5136356;27;1056;-56
2023/09/18 08:02:49;;;;;;;;;;;;;;;22.63;84.50;95739.16;5136376;27;1909;-56
2023/09/18 08:05:18;;;;;;;;;;;;;;;22.82;82.49;95731.88;5136092;27;1095;-56
2023/09/18 08:07:47;;;;;;;;;;;;;;;23.20;83.13;95730.88;5136196;27;1145;-57
2023/09/18 08:10:13;;;;;;;;;;;;;;;23.39;83.09;95738.03;5136271;27;1020;-56
2023/09/18 08:12:39;;;;;;;;;;;;;;;23.43;78.12;95738.44;5136415;27;965;-56
2023/09/18 08:15:06;;;;;;;;;;;;;;;23.47;79.56;95731.44;5122374;27;1329;-56
2023/09/18 08:17:32;;;;;;;;;;;;;;;23.43;78.03;95730.25;5134308;27;1048;-56
2023/09/18 08:19:58;;;;;;;;;;;;;;;23.24;77.95;95717.63;5127026;27;1986;-55
2023/09/18 08:22:24;;;;;;;;;;;;;;;23.48;77.58;95719.44;5124032;27;1902;-56
2023/09/18 08:24:52;;;;;;;;;;;;;;;23.40;80.42;95717.03;5115499;28;991;-57
2023/09/18 08:27:18;;;;;;;;;;;;;;;23.73;78.26;95718.50;5115064;28;1099;-56
2023/09/18 08:29:45;;;;;;;;;;;;;;;24.02;75.72;95721.53;5118804;27;1970;-56
2023/09/18 08:32:11;;;;;;;;;;;;;;;23.97;77.55;95714.84;5135423;27;1738;-56
2023/09/18 08:34:37;;;;;;;;;;;;;;;23.80;76.40;95713.84;5135899;27;1008;-56
2023/09/18 08:37:03;;;;;;;;;;;;;;;23.87;78.73;95711.84;5135439;27;1044;-57
2023/09/18 08:39:31;;;;;;;;;;;;;;;23.88;74.65;95712.69;5135605;27;1070;-56
2023/09/18 08:41:59;;;;;;;;;;;;;;;24.11;75.22;95704.59;5134159;27;2834;-56
2023/09/18 08:44:26;;;;;;;;;;;;;;;24.25;74.05;95707.13;5134095;27;1639;-56
2023/09/18 08:46:54;;;;;;;;;;;;;;;24.24;72.17;95705.44;5135166;27;1063;-57
2023/09/18 08:49:22;;;;;;;;;;;;;;;24.39;74.64;95707.75;5135290;27;1016;-57
2023/09/18 08:51:49;;;;;;;;;;;;;;;24.40;74.11;95710.25;5134357;27;1756;-56
2023/09/18 08:54:15;;;;;;;;;;;;;;;24.59;74.26;95702.00;5133880;27;1798;-56
2023/09/18 08:56:41;;;;;;;;;;;;;;;24.50;70.73;95694.09;5130592;27;1467;-56
2023/09/18 08:59:07;;;;;;;;;;;;;;;24.45;70.54;95704.88;5129448;27;1787;-57
2023/09/18 09:01:33;;;;;;;;;;;;;;;24.15;66.73;95697.59;5135029;27;1055;-57
2023/09/18 09:04:00;;;;;;;;;;;;;;;24.36;70.53;95689.94;5135159;27;1918;-57
2023/09/18 09:06:26;;;;;;;;;;;;;;;24.54;69.49;95689.03;5131850;27;1846;-58
2023/09/18 09:08:52;;;;;;;;;;;;;;;24.34;70.21;95684.69;5113255;28;1040;-57
2023/09/18 09:11:19;;;;;;;;;;;;;;;24.61;72.00;95684.28;5129729;27;1987;-57
2023/09/18 09:13:45;;;;;;;;;;;;;;;24.88;69.62;95689.28;5135233;27;980;-57
2023/09/18 09:16:12;;;;;;;;;;;;;;;24.89;69.23;95680.00;5134869;27;1110;-57
2023/09/18 09:18:49;;;;;;;;;;;;;;;24.93;69.62;95681.19;5135163;27;991;-56
2023/09/18 09:21:15;;;;;;;;;;;;;;;24.98;68.65;95678.56;5130624;27;1893;-57
2023/09/18 09:23:53;;;;;;;;;;;;;;;24.76;68.40;95681.09;5130673;27;1903;-57
2023/09/18 09:26:20;;;;;;;;;;;;;;;24.67;70.36;95674.31;5133436;27;944;-57
2023/09/18 09:28:48;;;;;;;;;;;;;;;24.83;71.09;95665.38;5134607;27;983;-57
2023/09/18 09:31:22;;;;;;;;;;;;;;;24.91;68.90;95672.41;5132261;27;1419;-57
2023/09/18 09:33:53;;;;;;;;;;;;;;;25.08;68.21;95673.34;5127884;27;1212;-56
2023/09/18 09:36:23;;;;;;;;;;;;;;;25.11;67.22;95661.06;5130677;27;1175;-58
2023/09/18 09:38:54;;;;;;;;;;;;;;;24.92;67.50;95663.94;5122333;27;1357;-57
2023/09/18 09:41:21;;;;;;;;;;;;;;;25.04;68.05;95655.75;5125619;27;1458;-57
2023/09/18 09:43:47;;;;;;;;;;;;;;;25.04;69.16;95654.88;5129381;27;1991;-57
2023/09/18 09:46:16;;;;;;;;;;;;;;;24.86;68.17;95642.19;5131334;28;1434;-57
2023/09/18 09:49:01;;;;;;;;;;;;;;;25.07;64.51;95648.94;5127644;27;2452;-57
2023/09/18 09:51:28;;;;;;;;;;;;;;;25.31;65.54;95653.34;5128795;27;1515;-57
2023/09/18 09:53:54;;;;;;;;;;;;;;;25.56;67.90;95651.38;5127371;27;1437;-57
2023/09/18 09:56:22;;;;;;;;;;;;;;;25.67;64.35;95647.75;5134095;28;1046;-56
2023/09/18 09:59:04;;;;;;;;;;;;;;;25.67;63.93;95642.28;5128015;28;1242;-56
2023/09/18 10:01:30;;;;;;;;;;;;;;;25.56;64.28;95654.09;5120876;27;1545;-56
2023/09/18 10:03:58;;;;;;;;;;;;;;;25.53;64.05;95647.19;5136979;27;1988;-58
2023/09/18 10:06:25;;;;;;;;;;;;;;;25.45;64.33;95636.63;5135957;27;1523;-57
2023/09/18 10:08:53;;;;;;;;;;;;;;;25.60;65.44;95633.38;5137750;27;1105;-56
2023/09/18 10:11:20;;;;;;;;;;;;;;;25.78;62.56;95630.44;5138086;27;1092;-57
2023/09/18 10:13:46;;;;;;;;;;;;;;;25.60;63.52;95620.50;5137913;27;1228;-57
2023/09/18 10:16:14;;;;;;;;;;;;;;;25.34;62.77;95624.66;5126808;27;1980;-57
2023/09/18 10:18:57;;;;;;;;;;;;;;;25.19;61.50;95624.28;5115951;28;1076;-56
2023/09/18 10:21:31;;;;;;;;;;;;;;;25.36;63.39;95616.19;5121179;27;966;-57
2023/09/18 10:24:07;;;;;;;;;;;;;;;25.40;65.43;95607.28;5137709;27;1914;-57
2023/09/18 10:26:38;;;;;;;;;;;;;;;25.48;62.36;95606.06;5137775;27;1095;-57
2023/09/18 10:29:08;;;;;;;;;;;;;;;25.59;62.17;95602.44;5136721;27;1863;-57
2023/09/18 10:31:37;;;;;;;;;;;;;;;25.76;61.75;95602.44;5137089;27;1099;-57
2023/09/18 10:34:04;;;;;;;;;;;;;;;25.64;63.17;95609.91;5117375;27;999;-56
2023/09/18 10:36:31;;;;;;;;;;;;;;;25.49;60.99;95604.97;5117093;28;1037;-57
2023/09/18 10:38:58;;;;;;;;;;;;;;;25.28;60.93;95598.25;5117483;28;991;-57
2023/09/18 10:41:26;;;;;;;;;;;;;;;25.20;61.79;95598.63;5117026;28;1044;-56
2023/09/18 10:43:57;;;;;;;;;;;;;;;25.49;63.15;95586.63;5122682;27;1998;-56
2023/09/18 10:46:25;;;;;;;;;;;;;;;25.78;65.83;95585.78;5138015;27;1046;-56
2023/09/18 10:48:51;;;;;;;;;;;;;;;25.90;64.09;95581.09;5137592;27;1031;-56
2023/09/18 10:51:21;;;;;;;;;;;;;;;26.02;64.14;95578.28;5137487;27;1126;-56
2023/09/18 10:53:47;;;;;;;;;;;;;;;26.03;65.23;95572.56;5134931;27;2070;-56
2023/09/18 10:56:15;;;;;;;;;;;;;;;26.04;62.30;95579.69;5130971;27;1718;-57
2023/09/18 10:58:42;;;;;;;;;;;;;;;25.82;59.45;95574.09;5131025;27;1190;-57
2023/09/18 11:01:11;;;;;;;;;;;;;;;25.94;62.15;95573.22;5137330;27;1067;-57
2023/09/18 11:03:37;;;;;;;;;;;;;;;26.16;62.23;95562.34;5137540;27;1909;-57
2023/09/18 11:06:07;;;;;;;;;;;;;;;26.29;62.11;95556.53;5137230;27;2031;-56
2023/09/18 11:08:53;;;;;;;;;;;;;;;26.36;61.90;95565.41;5117282;28;2013;-57
2023/09/18 11:11:20;;;;;;;;;;;;;;;26.40;62.70;95554.78;5116498;27;1178;-57
2023/09/18 11:13:47;;;;;;;;;;;;;;;26.46;61.67;95554.63;5124305;27;2022;-57
2023/09/18 11:16:15;;;;;;;;;;;;;;;26.36;62.23;95550.88;5132429;27;1845;-56
2023/09/18 11:18:41;;;;;;;;;;;;;;;26.23;63.34;95555.63;5137408;27;1019;-57
2023/09/18 11:21:11;;;;;;;;;;;;;;;26.25;62.53;95550.72;5137225;27;961;-57
2023/09/18 11:23:42;;;;;;;;;;;;;;;26.17;62.80;95542.91;5137031;27;1917;-57
2023/09/18 11:26:09;;;;;;;;;;;;;;;26.22;63.02;95542.19;5137098;27;1047;-57
2023/09/18 11:28:37;;;;;;;;;;;;;;;26.12;61.86;95540.09;5136879;27;1052;-57
2023/09/18 11:31:03;;;;;;;;;;;;;;;26.11;62.38;95538.44;5134539;27;1860;-57
2023/09/18 11:33:33;;;;;;;;;;;;;;;26.18;60.57;95533.63;5135912;27;969;-56
2023/09/18 11:36:07;;;;;;;;;;;;;;;26.21;62.36;95524.88;5124441;27;1078;-56
2023/09/18 11:38:35;;;;;;;;;;;;;;;26.16;62.73;95535.78;5121769;27;1199;-57
2023/09/18 11:41:19;;;;;;;;;;;;;;;26.14;62.12;95531.63;5136717;27;1026;-57
2023/09/18 11:43:45;;;;;;;;;;;;;;;26.18;62.80;95527.31;5135611;27;2050;-57
2023/09/18 11:46:12;;;;;;;;;;;;;;;26.12;59.97;95522.81;5132551;27;1051;-57
2023/09/18 11:48:41;;;;;;;;;;;;;;;26.09;62.74;95524.16;5116177;28;992;-57
2023/09/18 11:51:11;;;;;;;;;;;;;;;26.07;60.07;95524.41;5116204;27;972;-57
2023/09/18 11:53:40;;;;;;;;;;;;;;;26.01;59.99;95522.69;5118467;27;2856;-57
2023/09/18 11:56:17;;;;;;;;;;;;;;;26.03;59.02;95519.69;5116064;28;1048;-57
2023/09/18 11:58:47;;;;;;;;;;;;;;;26.09;59.88;95515.94;5124145;27;1735;-57
2023/09/18 12:01:15;;;;;;;;;;;;;;;26.19;63.64;95513.34;5125307;27;1612;-57
2023/09/18 12:03:41;;;;;;;;;;;;;;;26.19;61.45;95501.56;5136105;27;1913;-57
2023/09/18 12:06:09;;;;;;;;;;;;;;;26.17;63.95;95496.34;5136312;27;1242;-57
2023/09/18 12:08:35;;;;;;;;;;;;;;;26.24;60.66;95498.91;5135996;27;1095;-57
2023/09/18 12:11:05;;;;;;;;;;;;;;;26.34;58.38;95504.53;5135972;27;1107;-57
2023/09/18 12:13:31;;;;;;;;;;;;;;;26.37;62.60;95497.72;5135951;27;1024;-57
2023/09/18 12:16:01;;;;;;;;;;;;;;;26.23;60.92;95502.72;5134645;27;1073;-57
2023/09/18 12:18:31;;;;;;;;;;;;;;;26.21;59.11;95494.75;5136255;27;969;-56
2023/09/18 12:20:58;;;;;;;;;;;;;;;26.06;61.88;95494.53;5134608;27;2476;-57
2023/09/18 12:23:25;;;;;;;;;;;;;;;26.04;60.39;95491.19;5133416;27;1937;-58
2023/09/18 12:25:57;;;;;;;;;;;;;;;26.07;59.01;95490.72;5135180;27;1003;-55
2023/09/18 12:28:24;;;;;;;;;;;;;;;26.19;59.72;95483.22;5134477;27;2234;-55
2023/09/18 12:30:55;;;;;;;;;;;;;;;26.37;57.94;95484.00;5115002;27;1107;-57
2023/09/18 12:33:22;;;;;;;;;;;;;;;26.34;54.98;95487.25;5128928;27;1944;-54
2023/09/18 12:35:49;;;;;;;;;;;;;;;26.15;55.39;95475.75;5113898;28;1878;-55
2023/09/18 12:38:16;;;;;;;;;;;;;;;26.06;58.49;95467.94;5123738;27;965;-55
2023/09/18 12:40:44;;;;;;;;;;;;;;;26.13;60.86;95465.03;5134916;27;1946;-56
2023/09/18 12:43:10;;;;;;;;;;;;;;;26.21;60.88;95472.81;5135239;27;1947;-55
2023/09/18 12:45:36;;;;;;;;;;;;;;;26.23;58.62;95467.09;5135431;27;1035;-56
2023/09/18 12:48:03;;;;;;;;;;;;;;;26.21;58.25;95466.53;5135472;27;980;-57
2023/09/18 12:50:29;;;;;;;;;;;;;;;26.25;60.14;95468.50;5133110;27;973;-56
2023/09/18 12:53:11;;;;;;;;;;;;;;;26.30;61.02;95459.53;5114733;28;1075;-56
2023/09/18 12:55:37;;;;;;;;;;;;;;;26.37;59.02;95467.56;5114791;28;977;-57